Tongdao, China
Current Conditions -  °F | °C
As of 8:00 AM on Sunday 26 Oct 2014 (Local Time) from ZGKL Reporting Station
Haze Haze  
Wind Chill: 66°   Ceiling: Unl
Heat Index: 66°   Visibility: 2.1mi
Dew Point: 64°   Wind: 4mph
Humidity: 94%   Direction: NA
Pressure: 30.09"   Gusts: NA
Location:  26.17°N, 109.78°E
Report Text: ZGKL 260000Z VRB02MPS 3500 BR FEW066 19/18 Q1019 NOSIG
Loading
Personal Weather Stations






























Interactive Weather Map
Tropical Storm Tracking
New forecast layout! Learn more

10-Day Weather Forecast

Advertisements
Track Severe Weather on mobile